Time;durP1;ratioP1;P1;durP2;ratioP2;P2;SDS_P1;SDS_P2;PMS_P1;PMS_P2;Temp;Humidity;BMP_temperature;BMP_pressure;BME280_temperature;BME280_humidity;BME280_pressure;Samples;Min_cycle;Max_cycle;Signal;HPM_P1;HPM_P2
2022/07/25 00:01:38;;;;;;;2.83;2.28;;;22.70;99.90;;;;;;5046385;28;20047;-61
2022/07/25 00:04:04;;;;;;;2.70;2.50;;;22.70;99.90;;;;;;5046487;28;20037;-61
2022/07/25 00:06:29;;;;;;;2.30;2.10;;;22.70;99.90;;;;;;5046655;28;20053;-61
2022/07/25 00:08:55;;;;;;;2.67;2.47;;;22.70;99.90;;;;;;5046716;28;20040;-61
2022/07/25 00:11:21;;;;;;;4.85;2.45;;;22.70;99.90;;;;;;5046576;28;20102;-61
2022/07/25 00:13:47;;;;;;;5.03;2.33;;;22.70;99.90;;;;;;5046217;28;20462;-61
2022/07/25 00:16:12;;;;;;;2.83;2.63;;;22.70;99.90;;;;;;5045973;28;20502;-61
2022/07/25 00:18:38;;;;;;;3.13;2.85;;;22.70;99.90;;;;;;5046817;28;20115;-61
2022/07/25 00:21:04;;;;;;;2.90;2.33;;;22.70;99.90;;;;;;5046212;28;20037;-61
2022/07/25 00:23:29;;;;;;;2.75;2.55;;;22.70;99.90;;;;;;5045892;28;20202;-61
2022/07/25 00:25:55;;;;;;;2.90;2.20;;;22.70;99.90;;;;;;5046114;28;20049;-61
2022/07/25 00:28:21;;;;;;;3.47;2.13;;;22.60;99.90;;;;;;5046412;28;20041;-61
2022/07/25 00:30:46;;;;;;;2.67;2.30;;;22.60;99.90;;;;;;5045813;28;20044;-61
2022/07/25 00:33:12;;;;;;;2.60;2.45;;;22.60;99.90;;;;;;5046328;28;20041;-61
2022/07/25 00:35:38;;;;;;;3.88;2.65;;;22.60;99.90;;;;;;5045713;28;20060;-61
2022/07/25 00:38:03;;;;;;;2.92;2.55;;;22.70;99.90;;;;;;5046042;28;20108;-61
2022/07/25 00:40:29;;;;;;;2.80;2.38;;;22.70;99.90;;;;;;5046142;28;20040;-61
2022/07/25 00:42:54;;;;;;;3.15;2.50;;;22.60;99.90;;;;;;5045832;28;20075;-61
2022/07/25 00:45:20;;;;;;;3.70;2.50;;;22.60;99.90;;;;;;5046192;28;20065;-61
2022/07/25 00:47:46;;;;;;;3.92;2.55;;;22.60;99.90;;;;;;5046149;28;20504;-61
2022/07/25 00:50:11;;;;;;;2.50;2.25;;;22.60;99.90;;;;;;5045991;28;20174;-61
2022/07/25 00:52:37;;;;;;;3.13;2.35;;;22.60;99.90;;;;;;5050247;28;20037;-61
2022/07/25 00:55:04;;;;;;;3.38;2.85;;;22.60;99.90;;;;;;5050004;28;20492;-61
2022/07/25 00:57:29;;;;;;;3.00;2.80;;;22.60;99.90;;;;;;5049372;28;20092;-61
2022/07/25 00:59:55;;;;;;;3.53;2.50;;;22.60;99.90;;;;;;5050664;28;20040;-61
2022/07/25 01:02:21;;;;;;;2.22;1.92;;;22.60;99.90;;;;;;5050083;28;20484;-61
2022/07/25 01:04:46;;;;;;;2.78;2.55;;;22.60;99.90;;;;;;5049185;28;20377;-61
2022/07/25 01:07:12;;;;;;;3.75;2.85;;;22.60;99.90;;;;;;5050126;28;20048;-61
2022/07/25 01:09:38;;;;;;;3.00;2.70;;;22.60;99.90;;;;;;5049958;28;20511;-61
2022/07/25 01:12:04;;;;;;;2.85;2.65;;;22.60;99.90;;;;;;5048716;28;20121;-61
2022/07/25 01:14:30;;;;;;;2.80;2.60;;;22.60;99.90;;;;;;5049914;28;20154;-61
2022/07/25 01:16:55;;;;;;;2.70;2.50;;;22.50;99.90;;;;;;5050061;28;20051;-61
2022/07/25 01:19:21;;;;;;;2.80;2.60;;;22.50;99.90;;;;;;5048966;28;20492;-61
2022/07/25 01:21:47;;;;;;;3.67;2.63;;;22.60;99.90;;;;;;5049320;28;20399;-61
2022/07/25 01:24:12;;;;;;;4.78;3.13;;;22.50;99.90;;;;;;5049386;28;20047;-61
2022/07/25 01:26:38;;;;;;;3.58;3.22;;;22.50;99.90;;;;;;5048984;28;20047;-61
2022/07/25 01:29:04;;;;;;;4.45;3.58;;;22.40;99.90;;;;;;5049729;28;20037;-61
2022/07/25 01:31:30;;;;;;;3.33;3.13;;;22.40;99.90;;;;;;5049360;28;20083;-61
2022/07/25 01:33:55;;;;;;;2.47;2.30;;;22.40;99.90;;;;;;5049177;28;20045;-61
2022/07/25 01:36:21;;;;;;;3.53;2.80;;;22.40;99.90;;;;;;5049186;28;20045;-61
2022/07/25 01:38:47;;;;;;;4.05;3.05;;;22.40;99.90;;;;;;5048158;28;20041;-61
2022/07/25 01:41:12;;;;;;;2.85;2.42;;;22.30;99.90;;;;;;5049428;28;20534;-61
2022/07/25 01:43:38;;;;;;;3.05;2.72;;;22.30;99.90;;;;;;5049144;28;20067;-61
2022/07/25 01:46:04;;;;;;;3.38;3.10;;;22.30;99.90;;;;;;5048024;28;20041;-61
2022/07/25 01:48:29;;;;;;;3.22;2.92;;;22.30;99.90;;;;;;5049222;28;20037;-61
2022/07/25 01:50:55;;;;;;;3.28;2.95;;;22.20;99.90;;;;;;5049394;28;20045;-61
2022/07/25 01:53:21;;;;;;;3.38;2.55;;;22.20;99.90;;;;;;5048131;28;20041;-61
2022/07/25 01:55:46;;;;;;;2.70;2.50;;;22.20;99.90;;;;;;5048983;28;20037;-61
2022/07/25 01:58:12;;;;;;;3.40;3.10;;;22.20;99.90;;;;;;5048636;28;20385;-61
2022/07/25 02:00:38;;;;;;;2.85;2.55;;;22.10;99.90;;;;;;5048182;28;20088;-61
2022/07/25 02:05:48;;;;;;;5.30;2.95;;;22.10;99.90;;;;;;5048596;28;20060;-61
2022/07/25 02:08:14;;;;;;;3.03;2.70;;;22.00;99.90;;;;;;5048093;28;20040;-61
2022/07/25 02:10:40;;;;;;;3.17;2.88;;;22.00;99.90;;;;;;5048814;28;20045;-61
2022/07/25 02:13:06;;;;;;;3.15;2.42;;;22.00;99.90;;;;;;5048508;28;20048;-61
2022/07/25 02:15:31;;;;;;;2.75;2.55;;;21.90;99.90;;;;;;5047919;28;20083;-61
2022/07/25 02:17:57;;;;;;;3.78;2.63;;;21.90;99.90;;;;;;5048967;28;20049;-61
2022/07/25 02:20:23;;;;;;;3.35;3.05;;;21.90;99.90;;;;;;5048265;28;20056;-61
2022/07/25 02:22:48;;;;;;;3.13;2.83;;;21.90;99.90;;;;;;5047606;28;20083;-60
2022/07/25 02:25:14;;;;;;;3.88;3.35;;;21.80;99.90;;;;;;5048601;28;20457;-60
2022/07/25 02:27:39;;;;;;;3.97;3.20;;;21.80;99.90;;;;;;5048510;28;20402;-61
2022/07/25 02:30:06;;;;;;;3.97;2.85;;;21.80;99.90;;;;;;5047412;28;20393;-61
2022/07/25 02:32:31;;;;;;;6.72;2.65;;;21.80;99.90;;;;;;5048509;28;20407;-61
2022/07/25 02:34:57;;;;;;;3.30;2.72;;;21.80;99.90;;;;;;5048134;28;20045;-61
2022/07/25 02:37:23;;;;;;;5.22;3.13;;;21.70;99.90;;;;;;5046815;28;20063;-61
2022/07/25 02:39:49;;;;;;;3.47;3.15;;;21.60;99.90;;;;;;5047901;28;20153;-61
2022/07/25 02:42:15;;;;;;;4.32;3.08;;;21.70;99.90;;;;;;5047486;28;20141;-61
2022/07/25 02:44:40;;;;;;;2.90;2.65;;;21.70;99.90;;;;;;5048583;28;20102;-61
2022/07/25 02:47:06;;;;;;;3.55;3.25;;;21.70;99.90;;;;;;5047763;28;20041;-61
2022/07/25 02:49:32;;;;;;;3.42;3.13;;;21.70;99.90;;;;;;5047143;28;20057;-61
2022/07/25 02:51:57;;;;;;;4.50;3.00;;;21.60;99.90;;;;;;5048419;28;20044;-61
2022/07/25 02:54:23;;;;;;;3.88;3.33;;;21.50;99.90;;;;;;5048489;28;20415;-61
2022/07/25 02:56:49;;;;;;;3.13;2.85;;;21.60;99.90;;;;;;5047076;28;20492;-61
2022/07/25 02:59:15;;;;;;;4.32;3.58;;;21.60;99.90;;;;;;5047891;28;20136;-61
2022/07/25 03:01:40;;;;;;;4.53;3.45;;;21.50;99.90;;;;;;5047766;28;20060;-61
2022/07/25 03:04:06;;;;;;;3.40;3.10;;;21.50;99.90;;;;;;5046931;28;20239;-61
2022/07/25 03:06:32;;;;;;;3.53;3.22;;;21.50;99.90;;;;;;5047554;28;20041;-61
2022/07/25 03:08:57;;;;;;;4.80;4.13;;;21.50;99.90;;;;;;5048163;28;20497;-61
2022/07/25 03:11:23;;;;;;;4.63;3.25;;;21.50;99.90;;;;;;5047370;28;20049;-61
2022/07/25 03:13:49;;;;;;;4.22;3.92;;;21.50;99.90;;;;;;5047067;28;20116;-61
2022/07/25 03:16:15;;;;;;;3.38;3.15;;;21.50;99.90;;;;;;5047491;28;20049;-61
2022/07/25 03:18:40;;;;;;;4.50;4.07;;;21.40;99.90;;;;;;5046646;28;20049;-61
2022/07/25 03:21:06;;;;;;;4.22;3.83;;;21.40;99.90;;;;;;5047443;28;20044;-61
2022/07/25 03:23:32;;;;;;;3.50;3.20;;;21.50;99.90;;;;;;5047657;28;20102;-60
2022/07/25 03:25:58;;;;;;;4.82;4.40;;;21.50;99.90;;;;;;5046971;28;20376;-61
2022/07/25 03:28:24;;;;;;;6.03;4.60;;;21.50;99.90;;;;;;5047817;28;20041;-60
2022/07/25 03:30:50;;;;;;;5.35;4.53;;;21.50;99.90;;;;;;5047119;28;20047;-61
2022/07/25 03:33:16;;;;;;;3.83;3.53;;;21.50;99.90;;;;;;5046643;28;20041;-61
2022/07/25 03:35:42;;;;;;;4.10;3.38;;;21.50;99.90;;;;;;5047622;28;20273;-61
2022/07/25 03:38:07;;;;;;;4.00;3.35;;;21.50;99.90;;;;;;5047179;28;20045;-61
2022/07/25 03:40:33;;;;;;;4.93;4.53;;;21.40;99.90;;;;;;5046473;28;20399;-61
2022/07/25 03:42:58;;;;;;;4.35;4.05;;;21.30;99.90;;;;;;5046883;28;20037;-61
2022/07/25 03:45:24;;;;;;;5.88;5.38;;;21.30;99.90;;;;;;5046376;28;20098;-61
2022/07/25 03:47:50;;;;;;;7.40;4.60;;;21.20;99.90;;;;;;5047121;28;20479;-61
2022/07/25 03:50:16;;;;;;;4.78;4.35;;;21.30;99.90;;;;;;5046802;28;20102;-61
2022/07/25 03:52:41;;;;;;;5.70;4.85;;;21.30;99.90;;;;;;5046259;28;20393;-61
2022/07/25 03:55:09;;;;;;;5.22;3.80;;;21.30;99.90;;;;;;5046704;28;20048;-61
2022/07/25 03:57:35;;;;;;;6.50;4.68;;;21.30;99.90;;;;;;5046597;28;20053;-61
2022/07/25 04:00:02;;;;;;;5.25;4.63;;;21.30;99.90;;;;;;5045762;28;20124;-61
2022/07/25 04:02:28;;;;;;;7.07;6.00;;;21.40;99.90;;;;;;5047469;28;20538;-61
2022/07/25 04:04:53;;;;;;;6.43;5.75;;;21.30;99.90;;;;;;5046805;28;20040;-61
2022/07/25 04:07:19;;;;;;;6.00;5.47;;;21.30;99.90;;;;;;5046015;28;20094;-61
2022/07/25 04:09:45;;;;;;;6.65;6.05;;;21.40;99.90;;;;;;5045605;28;20049;-61
2022/07/25 04:12:11;;;;;;;6.40;5.78;;;21.30;99.90;;;;;;5046700;28;20041;-61
2022/07/25 04:14:37;;;;;;;6.32;5.82;;;21.30;99.90;;;;;;5045999;28;20108;-61
2022/07/25 04:17:03;;;;;;;5.85;5.35;;;21.30;99.90;;;;;;5046640;28;20535;-61
2022/07/25 04:19:29;;;;;;;9.25;5.75;;;21.30;99.90;;;;;;5046462;28;20041;-61
2022/07/25 04:21:54;;;;;;;6.40;5.82;;;21.30;99.90;;;;;;5046058;28;20051;-61
2022/07/25 04:24:20;;;;;;;8.18;6.78;;;21.30;99.90;;;;;;5046168;28;20051;-61
2022/07/25 04:26:45;;;;;;;7.07;5.93;;;21.30;99.90;;;;;;5045386;28;20434;-61
2022/07/25 04:29:11;;;;;;;10.10;6.50;;;21.20;99.90;;;;;;5045613;28;20041;-61
2022/07/25 04:31:37;;;;;;;8.02;6.45;;;21.20;99.90;;;;;;5046661;28;20039;-61
2022/07/25 04:34:02;;;;;;;7.30;6.57;;;21.20;99.90;;;;;;5045874;28;20439;-61
2022/07/25 04:36:28;;;;;;;7.18;6.47;;;21.20;99.90;;;;;;5046062;28;20049;-61
2022/07/25 04:38:54;;;;;;;7.10;6.40;;;21.20;99.90;;;;;;5046585;28;20095;-61
2022/07/25 04:41:20;;;;;;;8.20;7.35;;;21.20;99.90;;;;;;5046329;28;20045;-61
2022/07/25 04:43:45;;;;;;;7.65;6.95;;;21.20;99.90;;;;;;5045353;28;20091;-61
2022/07/25 04:46:11;;;;;;;6.97;6.38;;;21.10;99.90;;;;;;5045951;28;20126;-61
2022/07/25 04:48:37;;;;;;;6.78;6.10;;;21.20;99.90;;;;;;5045988;28;20036;-61
2022/07/25 04:51:02;;;;;;;7.82;7.03;;;21.10;99.90;;;;;;5046110;28;20562;-60
2022/07/25 04:53:28;;;;;;;7.30;6.63;;;21.10;99.90;;;;;;5047042;28;20048;-60
2022/07/25 04:55:54;;;;;;;8.25;7.45;;;21.10;99.90;;;;;;5045743;28;20500;-61
2022/07/25 04:58:19;;;;;;;10.40;7.32;;;21.10;99.90;;;;;;5046384;28;20098;-61
2022/07/25 05:00:45;;;;;;;8.45;7.47;;;21.10;99.90;;;;;;5045874;28;20053;-61
2022/07/25 05:03:10;;;;;;;7.60;6.90;;;21.10;99.90;;;;;;5043817;28;20084;-61
2022/07/25 05:05:36;;;;;;;9.63;7.32;;;21.20;99.90;;;;;;5045945;28;20048;-61
2022/07/25 05:08:02;;;;;;;7.82;7.13;;;21.20;99.90;;;;;;5045780;28;20219;-61
2022/07/25 05:10:28;;;;;;;7.32;6.70;;;21.20;99.90;;;;;;5045470;28;20266;-61
2022/07/25 05:12:55;;;;;;;7.47;6.82;;;21.10;99.90;;;;;;5046017;28;20037;-61
2022/07/25 05:15:21;;;;;;;7.13;6.53;;;21.20;99.90;;;;;;5045921;28;20097;-61
2022/07/25 05:17:47;;;;;;;7.93;7.10;;;21.20;99.90;;;;;;5044926;28;20048;-61
2022/07/25 05:20:13;;;;;;;9.65;7.43;;;21.20;99.90;;;;;;5046275;28;20049;-61
2022/07/25 05:22:39;;;;;;;7.18;6.57;;;21.20;99.90;;;;;;5045785;28;20049;-61
2022/07/25 05:25:06;;;;;;;8.90;7.55;;;21.20;99.90;;;;;;5045105;28;20395;-61
2022/07/25 05:27:32;;;;;;;7.93;7.22;;;21.30;99.90;;;;;;5046143;28;20041;-61
2022/07/25 05:29:57;;;;;;;8.68;7.72;;;21.30;99.90;;;;;;5046082;28;20048;-61
2022/07/25 05:32:23;;;;;;;8.70;7.72;;;21.30;99.90;;;;;;5045653;28;20395;-61
2022/07/25 05:34:48;;;;;;;8.82;8.02;;;21.30;99.90;;;;;;5045743;28;20084;-60
2022/07/25 05:37:15;;;;;;;9.20;8.25;;;21.30;99.90;;;;;;5048104;28;20446;-60
2022/07/25 05:39:40;;;;;;;9.32;8.52;;;21.40;99.90;;;;;;5048885;28;20052;-61
2022/07/25 05:42:06;;;;;;;9.18;8.38;;;21.40;99.90;;;;;;5049074;28;20507;-61
2022/07/25 05:44:32;;;;;;;10.13;9.20;;;21.40;99.90;;;;;;5049271;28;20056;-61
2022/07/25 05:46:58;;;;;;;8.50;7.75;;;21.40;99.90;;;;;;5048960;28;20071;-61
2022/07/25 05:49:24;;;;;;;8.93;8.20;;;21.50;99.90;;;;;;5048468;28;20051;-61
2022/07/25 05:51:49;;;;;;;9.82;8.95;;;21.50;99.90;;;;;;5049825;28;20040;-61
2022/07/25 05:54:15;;;;;;;10.35;9.15;;;21.50;99.90;;;;;;5056954;28;20492;-61
2022/07/25 05:56:41;;;;;;;10.20;9.10;;;21.50;99.90;;;;;;5058892;28;20060;-61
2022/07/25 05:59:06;;;;;;;10.88;9.82;;;21.60;99.90;;;;;;5057350;28;20041;-61
2022/07/25 06:01:32;;;;;;;10.52;9.43;;;21.60;99.90;;;;;;5057996;28;20045;-61
2022/07/25 06:03:58;;;;;;;10.82;9.68;;;21.50;99.90;;;;;;5052072;28;20561;-61
2022/07/25 06:06:24;;;;;;;10.70;9.63;;;21.50;99.90;;;;;;5047764;28;20049;-61
2022/07/25 06:08:49;;;;;;;13.30;10.48;;;21.60;99.90;;;;;;5048786;28;20049;-61
2022/07/25 06:11:15;;;;;;;13.25;9.63;;;21.60;99.90;;;;;;5048766;28;20053;-61
2022/07/25 06:13:41;;;;;;;16.45;11.25;;;21.60;99.90;;;;;;5048240;28;20074;-61
2022/07/25 06:16:07;;;;;;;10.35;8.82;;;21.70;99.90;;;;;;5048617;28;20056;-61
2022/07/25 06:18:33;;;;;;;11.13;10.07;;;21.70;99.90;;;;;;5048829;28;20124;-61
2022/07/25 06:20:59;;;;;;;11.50;10.30;;;21.70;99.90;;;;;;5047799;28;20500;-61
2022/07/25 06:23:25;;;;;;;12.00;10.73;;;21.70;99.90;;;;;;5049053;28;20242;-61
2022/07/25 06:25:50;;;;;;;12.40;10.48;;;21.80;99.90;;;;;;5048218;28;20049;-61
2022/07/25 06:28:16;;;;;;;12.18;10.88;;;21.70;99.90;;;;;;5047703;28;20044;-61
2022/07/25 06:30:43;;;;;;;11.57;9.93;;;21.80;99.90;;;;;;5048554;28;20198;-61
2022/07/25 06:33:09;;;;;;;10.93;9.90;;;21.80;99.90;;;;;;5048377;28;20048;-61
2022/07/25 06:35:34;;;;;;;16.15;10.07;;;21.90;99.90;;;;;;5047762;28;20047;-61
2022/07/25 06:38:00;;;;;;;11.38;10.27;;;21.90;99.90;;;;;;5048173;28;20499;-61
2022/07/25 06:40:26;;;;;;;11.05;9.10;;;22.00;99.90;;;;;;5048746;28;20099;-61
2022/07/25 06:42:52;;;;;;;10.70;9.60;;;22.00;99.90;;;;;;5047064;28;20520;-61
2022/07/25 06:45:18;;;;;;;11.05;10.05;;;22.10;99.90;;;;;;5048179;28;20911;-61
2022/07/25 06:47:44;;;;;;;17.67;10.02;;;22.00;99.90;;;;;;5047757;28;20275;-61
2022/07/25 06:50:12;;;;;;;9.85;8.98;;;22.00;99.90;;;;;;5046665;28;20037;-61
2022/07/25 06:52:39;;;;;;;9.32;8.43;;;22.10;99.90;;;;;;5048134;28;20064;-61
2022/07/25 06:55:06;;;;;;;11.00;8.75;;;22.10;99.90;;;;;;5047494;28;20045;-61
2022/07/25 06:57:32;;;;;;;9.88;8.60;;;22.20;99.90;;;;;;5046939;28;20492;-61
2022/07/25 06:59:57;;;;;;;11.15;8.70;;;22.10;99.90;;;;;;5046675;28;20403;-61
2022/07/25 07:02:23;;;;;;;9.80;8.77;;;22.20;99.90;;;;;;5047407;28;20049;-61
2022/07/25 07:04:49;;;;;;;10.77;9.45;;;22.30;99.90;;;;;;5047640;28;20056;-61
2022/07/25 07:07:15;;;;;;;9.63;8.63;;;22.40;99.90;;;;;;5047939;28;20052;-61
2022/07/25 07:09:42;;;;;;;11.73;8.73;;;22.50;99.90;;;;;;5046972;28;20045;-61
2022/07/25 07:12:08;;;;;;;10.07;9.00;;;22.60;99.90;;;;;;5047215;28;20040;-61
2022/07/25 07:14:34;;;;;;;9.13;7.97;;;22.60;99.90;;;;;;5047267;28;20431;-61
2022/07/25 07:16:59;;;;;;;9.15;8.18;;;22.70;99.90;;;;;;5046730;28;20040;-61
2022/07/25 07:19:25;;;;;;;8.63;7.75;;;22.70;99.90;;;;;;5047685;28;20120;-61
2022/07/25 07:21:51;;;;;;;9.25;7.85;;;22.80;99.90;;;;;;5047117;28;20045;-61
2022/07/25 07:24:17;;;;;;;6.93;6.30;;;22.80;99.90;;;;;;5046561;28;20037;-61
2022/07/25 07:26:42;;;;;;;9.23;7.68;;;22.80;99.90;;;;;;5046830;28;20083;-61
2022/07/25 07:29:08;;;;;;;9.15;8.35;;;22.90;99.90;;;;;;5047112;28;20073;-61
2022/07/25 07:31:34;;;;;;;9.40;8.55;;;22.90;99.90;;;;;;5046560;28;20318;-61
2022/07/25 07:34:00;;;;;;;8.90;7.53;;;23.00;99.90;;;;;;5046957;28;20078;-61
2022/07/25 07:36:26;;;;;;;7.80;7.03;;;23.00;99.90;;;;;;5047733;28;20103;-61
2022/07/25 07:38:51;;;;;;;8.32;7.53;;;23.10;99.90;;;;;;5045999;28;20059;-61
2022/07/25 07:41:18;;;;;;;6.70;6.07;;;23.10;99.90;;;;;;5046784;28;20124;-61
2022/07/25 07:43:44;;;;;;;6.95;6.32;;;23.10;99.90;;;;;;5047101;28;20104;-61
2022/07/25 07:46:09;;;;;;;6.70;6.10;;;23.20;99.90;;;;;;5045919;28;20472;-61
2022/07/25 07:48:35;;;;;;;8.57;5.10;;;23.20;99.90;;;;;;5046757;28;20087;-61
2022/07/25 07:51:01;;;;;;;6.03;4.97;;;23.30;99.90;;;;;;5046818;28;20076;-61
2022/07/25 07:56:13;;;;;;;4.78;4.38;;;23.60;99.90;;;;;;5047030;28;20045;-61
2022/07/25 07:58:39;;;;;;;4.32;3.92;;;23.60;99.90;;;;;;5045700;28;20057;-61
2022/07/25 08:01:05;;;;;;;4.68;3.90;;;23.70;99.90;;;;;;5046300;28;20048;-61
2022/07/25 08:03:31;;;;;;;8.05;3.88;;;23.70;99.90;;;;;;5046572;28;20040;-61
2022/07/25 08:05:57;;;;;;;3.70;3.40;;;23.60;99.90;;;;;;5044671;28;20078;-61
2022/07/25 08:08:23;;;;;;;4.25;3.58;;;23.70;99.90;;;;;;5046418;28;20037;-61
2022/07/25 08:10:49;;;;;;;4.05;3.65;;;23.80;99.90;;;;;;5046411;28;20498;-61
2022/07/25 08:13:20;;;;;;;5.25;3.50;;;23.90;99.90;;;;;;5046069;28;20060;-61
2022/07/25 08:15:50;;;;;;;4.30;3.70;;;24.00;99.90;;;;;;5045835;28;20515;-61
2022/07/25 08:18:17;;;;;;;4.00;3.70;;;24.00;99.90;;;;;;5046408;28;20067;-61
2022/07/25 08:20:43;;;;;;;6.70;4.10;;;24.00;99.90;;;;;;5045792;28;20049;-61
2022/07/25 08:23:12;;;;;;;4.13;3.83;;;24.00;99.90;;;;;;5046281;28;20079;-61
2022/07/25 08:25:38;;;;;;;5.25;3.58;;;23.90;99.90;;;;;;5046399;28;20094;-61
2022/07/25 08:28:05;;;;;;;5.10;3.95;;;23.80;99.90;;;;;;5045269;28;20041;-61
2022/07/25 08:30:31;;;;;;;16.95;8.13;;;23.80;99.90;;;;;;5046248;28;20538;-60
2022/07/25 08:33:00;;;;;;;5.32;4.82;;;23.70;99.90;;;;;;5046647;28;20123;-61
2022/07/25 08:35:27;;;;;;;6.15;3.60;;;23.60;99.90;;;;;;5045737;28;20381;-61
2022/07/25 08:37:53;;;;;;;4.70;3.45;;;23.50;99.90;;;;;;5046093;28;20377;-61
2022/07/25 08:40:21;;;;;;;3.58;2.25;;;23.40;99.90;;;;;;5046136;28;20053;-61
2022/07/25 08:42:47;;;;;;;2.10;1.90;;;23.30;99.90;;;;;;5045394;28;20076;-61
2022/07/25 08:45:18;;;;;;;2.28;1.73;;;23.20;99.90;;;;;;5046244;28;20055;-61
2022/07/25 08:47:45;;;;;;;3.55;1.80;;;23.10;99.90;;;;;;5045958;28;20045;-61
2022/07/25 08:50:14;;;;;;;7.20;3.60;;;23.00;99.90;;;;;;5046354;28;20159;-61
2022/07/25 08:52:46;;;;;;;1.92;1.70;;;22.90;99.90;;;;;;5046706;28;20094;-60
2022/07/25 08:55:15;;;;;;;9.27;4.05;;;22.90;99.90;;;;;;5045747;28;20485;-61
2022/07/25 08:57:44;;;;;;;4.03;2.03;;;22.80;99.90;;;;;;5046055;28;20049;-61
2022/07/25 09:00:14;;;;;;;6.25;2.50;;;22.80;99.90;;;;;;5045983;28;20404;-61
2022/07/25 09:02:39;;;;;;;2.20;1.70;;;22.80;99.90;;;;;;5045367;28;20445;-61
2022/07/25 09:05:06;;;;;;;3.90;2.28;;;22.80;99.90;;;;;;5045977;28;20456;-61
2022/07/25 09:07:37;;;;;;;4.05;1.58;;;22.70;99.90;;;;;;5046047;28;20069;-61
2022/07/25 09:10:18;;;;;;;3.10;1.55;;;22.70;99.90;;;;;;5045532;28;20136;-61
2022/07/25 09:13:13;;;;;;;3.05;1.70;;;22.70;99.90;;;;;;5048729;28;20041;-61
2022/07/25 09:15:45;;;;;;;2.42;1.60;;;22.70;99.90;;;;;;5049080;28;20072;-61
2022/07/25 09:18:13;;;;;;;1.63;1.52;;;22.70;99.90;;;;;;5049157;28;20049;-60
2022/07/25 09:20:45;;;;;;;2.28;1.33;;;22.60;99.90;;;;;;5049749;28;20074;-61
2022/07/25 09:23:13;;;;;;;3.33;1.33;;;22.50;99.90;;;;;;5049058;28;20287;-61
2022/07/25 09:25:39;;;;;;;5.13;1.58;;;22.50;99.90;;;;;;5049689;28;20048;-61
2022/07/25 09:28:12;;;;;;;2.42;1.38;;;22.50;99.90;;;;;;5049656;28;20041;-61
2022/07/25 09:30:38;;;;;;;2.40;1.45;;;22.50;99.90;;;;;;5048800;28;20052;-61
2022/07/25 09:33:04;;;;;;;2.15;1.40;;;22.50;99.90;;;;;;5049277;28;20446;-61
2022/07/25 09:35:37;;;;;;;2.05;1.55;;;22.60;99.90;;;;;;5049490;28;20136;-61
2022/07/25 09:38:10;;;;;;;3.95;1.50;;;22.50;99.90;;;;;;5048345;28;20041;-61
2022/07/25 09:40:36;;;;;;;4.55;1.60;;;22.60;99.90;;;;;;5049268;28;20087;-61
2022/07/25 09:43:02;;;;;;;3.50;1.67;;;22.70;99.90;;;;;;5049018;28;20452;-61
2022/07/25 09:45:28;;;;;;;2.15;1.65;;;22.90;99.90;;;;;;5049113;28;20099;-61
2022/07/25 09:47:56;;;;;;;6.85;1.85;;;22.90;99.90;;;;;;5049299;28;20045;-61
2022/07/25 09:50:24;;;;;;;5.45;1.67;;;23.00;99.90;;;;;;5049205;28;20110;-61
2022/07/25 09:52:52;;;;;;;2.95;1.83;;;23.10;99.90;;;;;;5048148;28;20075;-61
2022/07/25 09:55:19;;;;;;;5.45;1.80;;;23.00;99.90;;;;;;5049255;28;20510;-61
2022/07/25 09:57:46;;;;;;;3.50;1.38;;;22.90;99.90;;;;;;5049285;28;20463;-61
2022/07/25 10:00:13;;;;;;;4.75;1.95;;;22.70;99.90;;;;;;5048256;28;20053;-61
2022/07/25 10:02:54;;;;;;;6.78;1.92;;;22.60;99.90;;;;;;5048953;28;20044;-61
2022/07/25 10:05:58;;;;;;;13.57;4.38;;;22.50;99.90;;;;;;5048136;28;20049;-61
2022/07/25 10:08:24;;;;;;;4.45;2.33;;;22.40;99.90;;;;;;5026573;28;20527;-61
2022/07/25 10:10:50;;;;;;;2.45;1.65;;;22.30;99.90;;;;;;5026151;28;20060;-61
2022/07/25 10:13:28;;;;;;;5.25;2.53;;;22.30;99.90;;;;;;5035960;28;20056;-61
2022/07/25 10:15:54;;;;;;;2.50;2.05;;;22.40;99.90;;;;;;5049262;28;20040;-61
2022/07/25 10:18:26;;;;;;;2.83;1.90;;;22.40;99.90;;;;;;5048924;28;20411;-61
2022/07/25 10:21:08;;;;;;;2.75;1.90;;;22.40;99.90;;;;;;5047494;28;20037;-61
2022/07/25 10:23:34;;;;;;;3.55;2.08;;;22.40;99.90;;;;;;5047260;28;20407;-61
2022/07/25 10:26:18;;;;;;;3.03;2.50;;;22.40;99.90;;;;;;5047987;28;20045;-61
2022/07/25 10:28:45;;;;;;;5.35;2.22;;;22.30;99.90;;;;;;5048557;28;20037;-61
2022/07/25 10:31:42;;;;;;;4.72;2.58;;;22.20;99.90;;;;;;5048529;28;20059;-61
2022/07/25 10:34:09;;;;;;;4.80;2.00;;;22.20;99.90;;;;;;5042700;28;20053;-61
2022/07/25 10:36:48;;;;;;;3.22;2.30;;;22.30;99.90;;;;;;5048439;28;20037;-61
2022/07/25 10:39:16;;;;;;;5.82;2.33;;;22.20;99.90;;;;;;5048326;28;20052;-61
2022/07/25 10:41:43;;;;;;;3.60;2.10;;;22.30;99.90;;;;;;5047249;28;20568;-61
2022/07/25 10:44:14;;;;;;;5.05;2.35;;;22.40;99.90;;;;;;5048048;28;20076;-61
2022/07/25 10:46:43;;;;;;;2.88;1.38;;;22.60;99.90;;;;;;5047972;28;20114;-61
2022/07/25 10:49:19;;;;;;;6.85;2.03;;;22.70;99.90;;;;;;5047537;28;20045;-61
2022/07/25 10:51:55;;;;;;;3.67;1.80;;;22.90;99.90;;;;;;5048327;28;20076;-61
2022/07/25 10:54:21;;;;;;;6.55;2.80;;;23.20;99.90;;;;;;5047515;28;20044;-61
2022/07/25 10:56:57;;;;;;;4.57;2.00;;;23.20;99.90;;;;;;5047539;28;20056;-61
2022/07/25 10:59:28;;;;;;;6.63;2.00;;;23.30;99.90;;;;;;5047935;28;20060;-61
2022/07/25 11:01:54;;;;;;;3.75;2.28;;;23.40;99.90;;;;;;5029597;28;20462;-61
2022/07/25 11:04:20;;;;;;;7.22;2.13;;;23.40;99.90;;;;;;5047949;28;20089;-61
2022/07/25 11:06:46;;;;;;;6.03;2.38;;;23.30;99.90;;;;;;5047405;28;20087;-61
2022/07/25 11:09:16;;;;;;;5.93;2.33;;;23.30;99.90;;;;;;5046157;28;20127;-61
2022/07/25 11:11:48;;;;;;;5.03;2.10;;;23.00;99.90;;;;;;5047617;28;20065;-61
2022/07/25 11:14:16;;;;;;;6.60;1.92;;;22.90;99.90;;;;;;5047614;28;20511;-61
2022/07/25 11:16:43;;;;;;;4.88;2.33;;;22.80;99.90;;;;;;5046799;28;20515;-61
2022/07/25 11:19:27;;;;;;;6.43;2.38;;;22.90;99.90;;;;;;5047420;28;20535;-61
2022/07/25 11:21:58;;;;;;;9.32;2.78;;;22.90;99.90;;;;;;5047315;28;20071;-61
2022/07/25 11:24:44;;;;;;;4.85;1.67;;;23.00;99.90;;;;;;5046472;28;20504;-61
2022/07/25 11:27:18;;;;;;;8.82;2.17;;;23.10;99.90;;;;;;5047359;28;20045;-61
2022/07/25 11:29:44;;;;;;;7.20;2.63;;;23.10;99.90;;;;;;5046630;28;20088;-61
2022/07/25 11:32:11;;;;;;;13.13;3.78;;;23.20;99.90;;;;;;5047518;28;20079;-61
2022/07/25 11:34:49;;;;;;;19.33;6.32;;;23.10;99.90;;;;;;5046459;28;20037;-61
2022/07/25 11:37:17;;;;;;;9.18;2.38;;;23.00;99.90;;;;;;5046870;28;20067;-61
2022/07/25 11:39:44;;;;;;;8.45;2.58;;;22.90;99.90;;;;;;5046827;28;20045;-61
2022/07/25 11:42:18;;;;;;;9.75;2.45;;;22.90;99.90;;;;;;5047122;28;20049;-61
2022/07/25 11:44:45;;;;;;;7.13;2.40;;;23.00;99.90;;;;;;5046037;28;20037;-61
2022/07/25 11:47:31;;;;;;;4.85;2.17;;;23.00;99.90;;;;;;5047282;28;20484;-61
2022/07/25 11:50:00;;;;;;;4.10;1.48;;;23.10;99.90;;;;;;5046792;28;20484;-61
2022/07/25 11:52:29;;;;;;;6.40;2.13;;;23.20;99.90;;;;;;5046562;28;20047;-61
2022/07/25 11:55:00;;;;;;;3.53;1.95;;;23.20;99.90;;;;;;5045559;28;20040;-61
2022/07/25 11:57:27;;;;;;;;;;;23.20;99.90;;;;;;5062346;28;20531;-61
2022/07/25 11:59:54;;;;;;;3.15;1.75;;;23.10;99.90;;;;;;5046189;28;20016;-61
2022/07/25 12:02:24;;;;;;;8.07;2.53;;;23.00;99.90;;;;;;5047021;28;20048;-61
2022/07/25 12:05:02;;;;;;;3.45;1.60;;;23.00;99.90;;;;;;5045761;28;20501;-61
2022/07/25 12:07:46;;;;;;;6.97;2.17;;;23.00;99.90;;;;;;5046852;28;20554;-61
2022/07/25 12:10:21;;;;;;;5.30;1.80;;;23.20;99.90;;;;;;5046468;28;20107;-61
2022/07/25 12:12:55;;;;;;;4.55;2.40;;;23.10;99.90;;;;;;5045591;28;20049;-61
2022/07/25 12:15:22;;;;;;;8.55;2.22;;;23.00;99.90;;;;;;5046477;28;20131;-61
2022/07/25 12:17:52;;;;;;;3.58;2.08;;;23.10;99.90;;;;;;5046463;28;20045;-61
2022/07/25 12:20:46;;;;;;;6.55;2.50;;;23.20;99.90;;;;;;5045859;28;20562;-61
2022/07/25 12:23:12;;;;;;;4.68;1.85;;;23.30;99.90;;;;;;5045006;28;20627;-61
2022/07/25 12:25:40;;;;;;;3.75;1.52;;;23.40;99.90;;;;;;5046203;28;20049;-61
2022/07/25 12:28:07;;;;;;;6.22;2.00;;;23.30;99.90;;;;;;5045576;28;20492;-61
2022/07/25 12:30:33;;;;;;;8.65;1.98;;;23.30;99.90;;;;;;5046154;28;20561;-61
2022/07/25 12:33:00;;;;;;;3.97;1.83;;;23.20;99.90;;;;;;5044771;28;20033;-61
2022/07/25 12:35:26;;;;;;;4.63;1.60;;;23.20;99.90;;;;;;5045595;28;20060;-61
2022/07/25 12:37:52;;;;;;;5.15;1.60;;;23.10;99.90;;;;;;5046132;28;20451;-61
2022/07/25 12:40:18;;;;;;;4.90;1.98;;;23.00;99.90;;;;;;5045489;28;20519;-61
2022/07/25 12:42:45;;;;;;;3.47;1.67;;;23.10;99.90;;;;;;5046055;28;20487;-61
2022/07/25 12:45:12;;;;;;;5.50;1.92;;;23.10;99.90;;;;;;5046136;28;20048;-61
2022/07/25 12:47:38;;;;;;;7.15;1.98;;;23.20;99.90;;;;;;5048162;28;20119;-61
2022/07/25 12:50:05;;;;;;;5.82;2.20;;;23.30;99.90;;;;;;5050427;28;20041;-61
2022/07/25 12:52:31;;;;;;;6.40;1.95;;;23.40;99.90;;;;;;5050243;28;20119;-61